Time;durP1;ratioP1;P1;durP2;ratioP2;P2;SDS_P1;SDS_P2;PMS_P1;PMS_P2;Temp;Humidity;BMP_temperature;BMP_pressure;BME280_temperature;BME280_humidity;BME280_pressure;Samples;Min_cycle;Max_cycle;Signal;HPM_P1;HPM_P2
2021/11/14 00:00:30;;;;;;;30.63;11.57;;;9.00;99.90;;;;;;5040857;28;20402;-56
2021/11/14 00:02:58;;;;;;;17.20;9.18;;;9.00;99.90;;;;;;5041108;28;20021;-59
2021/11/14 00:05:24;;;;;;;17.05;9.00;;;9.00;99.90;;;;;;5047869;28;20021;-60
2021/11/14 00:07:49;;;;;;;13.05;8.18;;;9.10;99.90;;;;;;5042523;28;20487;-60
2021/11/14 00:10:15;;;;;;;15.15;8.63;;;9.10;99.90;;;;;;5039250;28;20033;-59
2021/11/14 00:12:42;;;;;;;12.63;8.77;;;9.10;99.90;;;;;;5041598;28;20040;-59
2021/11/14 00:15:09;;;;;;;14.68;8.93;;;9.10;99.90;;;;;;5044014;28;20398;-59
2021/11/14 00:17:35;;;;;;;13.80;8.43;;;9.10;99.90;;;;;;5043203;28;20338;-60
2021/11/14 00:20:04;;;;;;;15.45;8.55;;;9.10;99.90;;;;;;5050835;28;20427;-59
2021/11/14 00:22:30;;;;;;;17.77;8.80;;;9.10;99.90;;;;;;5051880;28;20037;-58
2021/11/14 00:24:55;;;;;;;13.90;7.18;;;9.10;99.90;;;;;;5042361;28;20400;-56
2021/11/14 00:27:21;;;;;;;18.08;8.93;;;9.10;99.90;;;;;;5050273;28;20380;-60
2021/11/14 00:29:49;;;;;;;12.00;8.40;;;9.10;99.90;;;;;;5040957;28;20043;-59
2021/11/14 00:32:15;;;;;;;14.82;9.10;;;9.10;99.90;;;;;;5047148;28;20051;-59
2021/11/14 00:34:40;;;;;;;16.35;9.32;;;9.00;99.90;;;;;;5046500;28;20060;-59
2021/11/14 00:37:06;;;;;;;15.32;8.75;;;9.00;99.90;;;;;;5044714;28;20033;-60
2021/11/14 00:39:32;;;;;;;20.88;8.90;;;9.00;99.90;;;;;;5039843;28;20021;-60
2021/11/14 00:41:58;;;;;;;12.75;8.60;;;9.00;99.90;;;;;;5046597;28;20036;-60
2021/11/14 00:44:23;;;;;;;13.90;8.60;;;9.00;99.90;;;;;;5047984;28;20088;-58
2021/11/14 00:46:49;;;;;;;15.48;8.07;;;9.00;99.90;;;;;;5048459;28;20021;-61
2021/11/14 00:49:15;;;;;;;14.95;8.40;;;9.00;99.90;;;;;;5040653;28;20471;-60
2021/11/14 00:51:41;;;;;;;28.58;8.75;;;9.10;99.90;;;;;;5047444;28;20028;-59
2021/11/14 00:54:07;;;;;;;14.18;7.90;;;9.10;99.90;;;;;;5041683;28;20032;-59
2021/11/14 00:56:33;;;;;;;13.70;7.90;;;9.10;99.90;;;;;;5043423;28;20044;-59
2021/11/14 00:58:58;;;;;;;21.42;8.55;;;9.10;99.90;;;;;;5045839;28;20037;-59
2021/11/14 01:01:25;;;;;;;17.35;8.57;;;9.10;99.90;;;;;;5045871;28;20025;-58
2021/11/14 01:03:52;;;;;;;23.25;8.10;;;9.10;99.90;;;;;;5042274;28;20058;-59
2021/11/14 01:06:17;;;;;;;20.13;7.82;;;9.10;99.90;;;;;;5050879;28;20021;-58
2021/11/14 01:08:43;;;;;;;14.48;7.47;;;9.10;99.90;;;;;;5043442;28;20506;-59
2021/11/14 01:11:10;;;;;;;33.13;8.48;;;9.10;99.90;;;;;;5041283;28;20025;-58
2021/11/14 01:13:38;;;;;;;12.40;8.13;;;9.00;99.90;;;;;;5041556;28;20101;-60
2021/11/14 01:16:06;;;;;;;12.77;7.47;;;9.10;99.90;;;;;;5043583;28;20430;-59
2021/11/14 01:18:32;;;;;;;10.48;7.80;;;9.00;99.90;;;;;;5040809;28;20025;-60
2021/11/14 01:21:03;;;;;;;14.35;7.82;;;9.00;99.90;;;;;;5042435;28;20108;-58
2021/11/14 01:23:29;;;;;;;14.70;7.97;;;9.00;99.90;;;;;;5044426;28;20079;-59
2021/11/14 01:25:55;;;;;;;13.93;8.20;;;9.00;99.90;;;;;;5040668;28;20029;-60
2021/11/14 01:28:21;;;;;;;14.75;7.75;;;9.00;99.90;;;;;;5036838;28;20445;-60
2021/11/14 01:30:50;;;;;;;12.27;8.23;;;8.90;99.90;;;;;;5042998;28;20029;-59
2021/11/14 01:33:18;;;;;;;10.30;7.40;;;8.90;99.90;;;;;;5046091;28;20104;-60
2021/11/14 01:35:45;;;;;;;11.82;6.95;;;8.90;99.90;;;;;;5042265;28;20473;-59
2021/11/14 01:38:11;;;;;;;10.30;8.00;;;8.90;99.90;;;;;;5044560;28;20021;-59
2021/11/14 01:40:40;;;;;;;12.70;8.65;;;8.90;99.90;;;;;;5045575;28;20025;-57
2021/11/14 01:43:08;;;;;;;13.40;7.88;;;8.90;99.90;;;;;;5048372;28;20037;-59
2021/11/14 01:45:34;;;;;;;12.20;7.47;;;8.90;99.90;;;;;;5047375;28;20025;-56
2021/11/14 01:48:00;;;;;;;9.70;7.03;;;9.00;99.90;;;;;;5040701;28;20060;-59
2021/11/14 01:50:25;;;;;;;17.13;8.32;;;9.00;99.90;;;;;;5041788;28;20490;-60
2021/11/14 01:52:52;;;;;;;9.10;6.50;;;9.00;99.90;;;;;;5042163;28;20030;-59
2021/11/14 01:55:22;;;;;;;12.40;7.03;;;8.90;99.90;;;;;;5043386;28;20107;-56
2021/11/14 01:57:48;;;;;;;12.48;8.05;;;9.00;99.90;;;;;;5043946;28;20029;-60
2021/11/14 02:00:26;;;;;;;13.50;7.88;;;8.90;99.90;;;;;;5044769;28;20021;-57
2021/11/14 02:02:52;;;;;;;11.27;7.07;;;8.90;99.90;;;;;;5044809;28;20031;-59
2021/11/14 02:05:22;;;;;;;12.68;8.10;;;8.90;99.90;;;;;;5042754;28;20029;-59
2021/11/14 02:07:52;;;;;;;12.57;7.57;;;8.90;99.90;;;;;;5045819;28;20060;-60
2021/11/14 02:10:18;;;;;;;10.10;7.13;;;8.90;99.90;;;;;;5039990;28;20021;-60
2021/11/14 02:12:43;;;;;;;12.30;7.90;;;8.90;99.90;;;;;;5050941;28;20036;-60
2021/11/14 02:15:09;;;;;;;11.60;7.95;;;8.90;99.90;;;;;;5046146;28;20112;-60
2021/11/14 02:17:35;;;;;;;10.63;7.07;;;8.90;99.90;;;;;;5032715;28;20029;-60
2021/11/14 02:20:01;;;;;;;9.80;7.35;;;8.90;99.90;;;;;;5043404;28;20033;-60
2021/11/14 02:22:27;;;;;;;13.30;7.78;;;8.90;99.90;;;;;;5043197;28;20194;-61
2021/11/14 02:24:52;;;;;;;16.27;8.73;;;8.90;99.90;;;;;;5048285;28;20151;-61
2021/11/14 02:27:18;;;;;;;9.77;7.53;;;8.90;99.90;;;;;;5042228;28;20025;-60
2021/11/14 02:29:44;;;;;;;11.52;7.55;;;8.90;99.90;;;;;;5049330;28;20315;-59
2021/11/14 02:32:11;;;;;;;10.40;7.05;;;8.90;99.90;;;;;;5058605;28;20033;-59
2021/11/14 02:34:37;;;;;;;10.13;7.63;;;8.80;99.90;;;;;;5044010;28;20063;-59
2021/11/14 02:37:03;;;;;;;10.70;7.07;;;8.90;99.90;;;;;;5042424;28;20476;-59
2021/11/14 02:39:29;;;;;;;10.52;8.20;;;8.90;99.90;;;;;;5044553;28;20361;-61
2021/11/14 02:41:54;;;;;;;12.20;7.57;;;8.90;99.90;;;;;;5025896;28;20029;-59
2021/11/14 02:44:20;;;;;;;11.38;8.43;;;8.90;99.90;;;;;;5044070;28;20033;-60
2021/11/14 02:46:45;;;;;;;11.75;8.43;;;8.90;99.90;;;;;;5040945;28;20026;-61
2021/11/14 02:49:11;;;;;;;12.10;8.73;;;8.90;99.90;;;;;;5049929;28;20025;-59
2021/11/14 02:51:37;;;;;;;12.13;8.07;;;8.90;99.90;;;;;;5045854;28;20018;-60
2021/11/14 02:54:04;;;;;;;13.52;7.65;;;8.80;99.90;;;;;;5047471;28;20029;-57
2021/11/14 02:56:30;;;;;;;10.95;8.88;;;8.90;99.90;;;;;;5047080;28;20097;-59
2021/11/14 02:58:57;;;;;;;13.55;8.38;;;8.80;99.90;;;;;;5043070;28;20069;-59
2021/11/14 03:01:33;;;;;;;14.27;8.30;;;8.80;99.90;;;;;;5043658;28;20037;-60
2021/11/14 03:04:00;;;;;;;11.35;8.35;;;8.80;99.90;;;;;;5048861;28;20035;-60
2021/11/14 03:06:28;;;;;;;11.98;7.20;;;8.90;99.90;;;;;;5044581;28;20040;-62
2021/11/14 03:08:54;;;;;;;24.45;10.30;;;8.90;99.90;;;;;;5045279;28;20027;-60
2021/11/14 03:11:19;;;;;;;12.20;8.13;;;8.90;99.90;;;;;;5041966;28;20037;-59
2021/11/14 03:13:45;;;;;;;10.52;7.80;;;8.90;99.90;;;;;;5025871;28;20487;-61
2021/11/14 03:16:13;;;;;;;9.98;7.20;;;8.80;99.90;;;;;;5038866;28;20060;-60
2021/11/14 03:18:39;;;;;;;9.85;6.85;;;8.80;99.90;;;;;;5045632;28;20108;-58
2021/11/14 03:21:05;;;;;;;13.20;8.07;;;8.80;99.90;;;;;;5043777;28;20121;-60
2021/11/14 03:23:31;;;;;;;9.52;6.80;;;8.80;99.90;;;;;;5043427;28;20036;-61
2021/11/14 03:25:58;;;;;;;13.48;8.23;;;8.80;99.90;;;;;;5037295;28;20037;-60
2021/11/14 03:28:25;;;;;;;12.63;7.70;;;8.80;99.90;;;;;;5045353;28;20025;-60
2021/11/14 03:30:53;;;;;;;12.15;7.00;;;8.70;99.90;;;;;;5042543;28;20075;-60
2021/11/14 03:33:19;;;;;;;13.05;8.27;;;8.70;99.90;;;;;;5043334;28;20037;-60
2021/11/14 03:35:51;;;;;;;13.07;8.20;;;8.70;99.90;;;;;;5043450;28;20021;-60
2021/11/14 03:38:24;;;;;;;16.27;7.40;;;8.70;99.90;;;;;;5096564;22;20498;-62
2021/11/14 03:40:50;;;;;;;15.73;8.68;;;8.60;99.90;;;;;;5087465;28;20035;-61
2021/11/14 03:43:15;;;;;;;15.65;8.60;;;8.60;99.90;;;;;;5071666;28;20055;-61
2021/11/14 03:45:41;;;;;;;12.65;9.30;;;8.60;99.90;;;;;;5082117;28;20450;-59
2021/11/14 03:48:08;;;;;;;12.38;8.15;;;8.60;99.90;;;;;;5074114;28;20502;-61
2021/11/14 03:50:34;;;;;;;9.50;7.30;;;8.60;99.90;;;;;;5072951;28;20044;-60
2021/11/14 03:52:59;;;;;;;12.70;7.93;;;8.70;99.90;;;;;;5071376;28;20025;-60
2021/11/14 03:55:25;;;;;;;12.63;7.85;;;8.60;99.90;;;;;;5063816;28;20578;-62
2021/11/14 03:57:51;;;;;;;28.88;7.93;;;8.70;99.90;;;;;;5071703;28;20414;-61
2021/11/14 04:00:25;;;;;;;26.60;9.95;;;8.70;99.90;;;;;;5069850;28;20100;-61
2021/11/14 04:02:52;;;;;;;;;;;8.80;99.90;;;;;;5070564;28;20442;-60
2021/11/14 04:05:19;;;;;;;11.20;7.63;;;8.70;99.90;;;;;;5071433;28;20332;-62
2021/11/14 04:07:45;;;;;;;10.05;7.90;;;8.60;99.90;;;;;;5078228;28;20020;-61
2021/11/14 04:10:11;;;;;;;11.25;7.80;;;8.70;99.90;;;;;;5069453;28;20020;-63
2021/11/14 04:12:38;;;;;;;9.63;7.60;;;8.60;99.90;;;;;;5073221;28;20082;-61
2021/11/14 04:15:06;;;;;;;12.82;7.50;;;8.60;99.90;;;;;;5069743;28;20089;-62
2021/11/14 04:17:33;;;;;;;10.68;7.03;;;8.60;99.90;;;;;;5068870;28;20499;-61
2021/11/14 04:19:58;;;;;;;8.90;7.28;;;8.60;99.90;;;;;;5075994;28;20089;-62
2021/11/14 04:22:24;;;;;;;11.18;7.97;;;8.60;99.90;;;;;;5069320;28;20404;-59
2021/11/14 04:24:49;;;;;;;18.02;8.40;;;8.60;99.90;;;;;;5069624;28;20058;-63
2021/11/14 04:27:15;;;;;;;11.52;8.18;;;8.60;99.90;;;;;;5070389;28;20424;-62
2021/11/14 04:29:40;;;;;;;11.38;8.40;;;8.60;99.90;;;;;;5067143;28;20017;-63
2021/11/14 04:32:06;;;;;;;14.38;7.80;;;8.50;99.90;;;;;;5068974;28;20040;-62
2021/11/14 04:34:32;;;;;;;9.93;7.38;;;8.50;99.90;;;;;;5068922;28;20021;-62
2021/11/14 04:36:58;;;;;;;12.45;8.77;;;8.50;99.90;;;;;;5069049;28;20036;-62
2021/11/14 04:39:23;;;;;;;12.52;8.68;;;8.60;99.90;;;;;;5074476;28;20024;-62
2021/11/14 04:41:49;;;;;;;13.48;8.13;;;8.60;99.90;;;;;;5069158;28;20459;-62
2021/11/14 04:44:14;;;;;;;10.45;7.75;;;8.70;99.90;;;;;;5068813;28;20029;-62
2021/11/14 04:46:40;;;;;;;17.63;8.23;;;8.60;99.90;;;;;;5069459;28;20025;-61
2021/11/14 04:49:05;;;;;;;9.65;7.60;;;8.70;99.90;;;;;;5069271;28;20405;-61
2021/11/14 04:51:31;;;;;;;16.48;8.95;;;8.70;99.90;;;;;;5069431;28;20478;-59
2021/11/14 04:53:56;;;;;;;16.20;8.10;;;8.70;99.90;;;;;;5068808;28;20474;-60
2021/11/14 04:56:22;;;;;;;9.15;7.13;;;8.70;99.90;;;;;;5069053;28;20020;-60
2021/11/14 04:58:48;;;;;;;13.30;7.50;;;8.70;99.90;;;;;;5072630;28;20064;-62
2021/11/14 05:01:14;;;;;;;12.13;8.35;;;8.70;99.90;;;;;;5073324;28;20024;-60
2021/11/14 05:03:39;;;;;;;10.90;8.13;;;8.70;99.90;;;;;;5072167;28;20024;-61
2021/11/14 05:06:09;;;;;;;13.25;8.55;;;8.70;99.90;;;;;;5072685;28;20025;-61
2021/11/14 05:08:35;;;;;;;11.15;7.75;;;8.80;99.90;;;;;;5072541;28;20028;-61
2021/11/14 05:11:00;;;;;;;10.23;7.63;;;8.70;99.90;;;;;;5072443;28;20034;-62
2021/11/14 05:13:26;;;;;;;9.20;6.93;;;8.70;99.90;;;;;;5072967;28;20021;-62
2021/11/14 05:15:52;;;;;;;12.82;8.13;;;8.70;99.90;;;;;;5072379;28;20463;-62
2021/11/14 05:18:18;;;;;;;13.25;7.70;;;8.60;99.90;;;;;;5075561;28;20181;-62
2021/11/14 05:20:44;;;;;;;9.60;6.75;;;8.60;99.90;;;;;;5072589;28;20464;-62
2021/11/14 05:23:13;;;;;;;11.02;7.75;;;8.50;99.90;;;;;;5071847;28;20064;-61
2021/11/14 05:25:39;;;;;;;13.30;8.43;;;8.40;99.90;;;;;;5073008;28;20479;-58
2021/11/14 05:28:05;;;;;;;10.02;7.85;;;8.30;99.90;;;;;;5071661;28;20028;-61
2021/11/14 05:30:30;;;;;;;15.50;8.50;;;8.30;99.90;;;;;;5071256;28;20372;-62
2021/11/14 05:32:57;;;;;;;9.15;7.57;;;8.20;99.90;;;;;;5071832;28;20021;-62
2021/11/14 05:35:22;;;;;;;12.40;8.32;;;8.20;99.90;;;;;;5072363;28;20016;-61
2021/11/14 05:37:48;;;;;;;14.13;9.45;;;8.20;99.90;;;;;;5071878;28;20512;-62
2021/11/14 05:40:13;;;;;;;18.58;7.97;;;8.20;99.90;;;;;;5072528;28;20119;-61
2021/11/14 05:42:40;;;;;;;14.38;7.50;;;8.20;99.90;;;;;;5071822;28;20066;-61
2021/11/14 05:45:06;;;;;;;12.93;9.23;;;8.20;99.90;;;;;;5071960;28;20542;-61
2021/11/14 05:47:32;;;;;;;13.60;7.57;;;8.20;99.90;;;;;;5069055;28;20510;-63
2021/11/14 05:49:57;;;;;;;12.00;8.10;;;8.20;99.90;;;;;;5071671;28;20029;-60
2021/11/14 05:52:23;;;;;;;10.20;7.88;;;8.10;99.90;;;;;;5071797;28;20386;-59
2021/11/14 05:54:49;;;;;;;13.48;8.80;;;8.10;99.90;;;;;;5071724;28;20050;-61
2021/11/14 05:57:15;;;;;;;12.00;7.97;;;8.10;99.90;;;;;;5071794;28;20065;-61
2021/11/14 06:05:10;;;;;;;11.05;8.18;;;8.10;99.90;;;;;;5071827;28;20060;-62
2021/11/14 06:07:36;;;;;;;9.52;7.25;;;8.10;99.90;;;;;;5069626;28;20024;-62
2021/11/14 06:10:02;;;;;;;10.95;8.15;;;8.00;99.90;;;;;;5070770;28;20090;-62
2021/11/14 06:12:28;;;;;;;11.85;8.38;;;8.10;99.90;;;;;;5070176;28;20100;-60
2021/11/14 06:14:55;;;;;;;22.42;8.88;;;8.00;99.90;;;;;;5072365;28;20021;-61
2021/11/14 06:17:20;;;;;;;13.32;10.07;;;8.10;99.90;;;;;;5071324;28;20023;-62
2021/11/14 06:19:50;;;;;;;17.20;10.63;;;8.10;99.90;;;;;;5070910;28;20028;-63
2021/11/14 06:22:17;;;;;;;15.23;9.98;;;8.20;99.90;;;;;;5071596;28;20036;-61
2021/11/14 06:24:43;;;;;;;13.52;10.27;;;8.20;99.90;;;;;;5071442;28;20017;-62
2021/11/14 06:27:09;;;;;;;31.60;11.13;;;8.20;99.90;;;;;;5071816;28;20081;-62
2021/11/14 06:29:34;;;;;;;17.27;10.88;;;8.20;99.90;;;;;;5070438;28;20040;-62
2021/11/14 06:32:01;;;;;;;19.50;11.18;;;8.20;99.90;;;;;;5071525;28;20020;-62
2021/11/14 06:34:26;;;;;;;16.15;11.40;;;8.30;99.90;;;;;;5070402;28;20051;-61
2021/11/14 06:36:52;;;;;;;16.25;12.00;;;8.20;99.90;;;;;;5071629;28;20433;-62
2021/11/14 06:39:18;;;;;;;15.13;10.93;;;8.20;99.90;;;;;;5070396;28;20020;-61
2021/11/14 06:41:45;;;;;;;22.25;12.20;;;8.30;99.90;;;;;;5071505;28;20036;-61
2021/11/14 06:44:10;;;;;;;16.08;11.48;;;8.30;99.90;;;;;;5070521;28;20493;-62
2021/11/14 06:46:36;;;;;;;17.15;11.50;;;8.30;99.90;;;;;;5070809;28;20072;-62
2021/11/14 06:49:01;;;;;;;18.23;11.38;;;8.30;99.90;;;;;;5070329;28;20036;-61
2021/11/14 06:51:27;;;;;;;21.20;13.35;;;8.30;99.90;;;;;;5070848;28;20013;-60
2021/11/14 06:53:53;;;;;;;15.85;11.57;;;8.30;99.90;;;;;;5070257;28;20036;-60
2021/11/14 06:56:18;;;;;;;17.20;11.90;;;8.20;99.90;;;;;;5071018;28;20028;-62
2021/11/14 06:58:44;;;;;;;16.70;10.15;;;8.20;99.90;;;;;;5071059;28;20035;-63
2021/11/14 07:01:09;;;;;;;18.48;12.40;;;8.20;99.90;;;;;;5070632;28;20095;-62
2021/11/14 07:03:35;;;;;;;15.13;10.98;;;8.20;99.90;;;;;;5073858;28;20032;-62
2021/11/14 07:06:01;;;;;;;19.05;11.80;;;8.20;99.90;;;;;;5071286;28;20040;-61
2021/11/14 07:08:26;;;;;;;16.27;11.68;;;8.20;99.90;;;;;;5071394;28;20545;-61
2021/11/14 07:10:52;;;;;;;15.20;10.95;;;8.20;99.90;;;;;;5076772;28;20032;-60
2021/11/14 07:13:18;;;;;;;15.00;10.75;;;8.20;99.90;;;;;;5069558;28;20070;-58
2021/11/14 07:15:44;;;;;;;20.83;10.73;;;8.20;99.90;;;;;;5076957;28;20433;-60
2021/11/14 07:18:09;;;;;;;14.70;10.65;;;8.30;99.90;;;;;;5073258;28;20028;-61
2021/11/14 07:20:35;;;;;;;15.48;10.95;;;8.30;99.90;;;;;;5073014;28;20020;-61
2021/11/14 07:23:01;;;;;;;14.48;10.80;;;8.30;99.90;;;;;;5070381;28;20031;-61
2021/11/14 07:25:26;;;;;;;14.25;10.60;;;8.30;99.90;;;;;;5070339;28;20406;-62
2021/11/14 07:27:53;;;;;;;19.13;10.93;;;8.30;99.90;;;;;;5069953;28;20032;-62
2021/11/14 07:30:20;;;;;;;19.85;11.43;;;8.30;99.90;;;;;;5069986;28;20037;-62
2021/11/14 07:32:46;;;;;;;13.30;9.38;;;8.30;99.90;;;;;;5070591;28;20047;-62
2021/11/14 07:35:15;;;;;;;15.38;10.75;;;8.30;99.90;;;;;;5073716;28;20032;-61
2021/11/14 07:37:41;;;;;;;21.15;11.48;;;8.40;99.90;;;;;;5069365;28;20029;-61
2021/11/14 07:40:08;;;;;;;16.42;10.75;;;8.30;99.90;;;;;;5070134;28;20460;-63
2021/11/14 07:42:36;;;;;;;15.70;11.00;;;8.40;99.90;;;;;;5069418;28;20040;-61
2021/11/14 07:45:03;;;;;;;17.98;10.20;;;8.40;99.90;;;;;;5067413;28;20094;-62
2021/11/14 07:47:28;;;;;;;18.70;10.00;;;8.50;99.90;;;;;;5069242;28;20016;-62
2021/11/14 07:49:54;;;;;;;16.92;9.80;;;8.50;99.90;;;;;;5069938;28;20086;-62
2021/11/14 07:52:20;;;;;;;14.55;10.32;;;8.50;99.90;;;;;;5069406;28;20021;-61
2021/11/14 07:54:46;;;;;;;14.27;10.27;;;8.50;99.90;;;;;;5070031;28;20070;-61
2021/11/14 07:57:11;;;;;;;13.27;9.63;;;8.60;99.90;;;;;;5069774;28;20414;-58
2021/11/14 07:59:37;;;;;;;13.00;9.73;;;8.60;99.90;;;;;;5070167;28;20024;-58
2021/11/14 08:02:03;;;;;;;14.07;10.23;;;8.60;99.90;;;;;;5067406;28;20397;-57
2021/11/14 08:04:29;;;;;;;14.13;9.48;;;8.60;99.90;;;;;;5069379;28;20017;-61
2021/11/14 08:06:56;;;;;;;13.75;10.13;;;8.60;99.90;;;;;;5070204;28;20020;-60
2021/11/14 08:09:22;;;;;;;12.00;8.88;;;8.70;99.90;;;;;;5069611;28;20021;-61
2021/11/14 08:11:48;;;;;;;10.68;8.50;;;8.70;99.90;;;;;;5069568;28;20107;-61
2021/11/14 08:14:14;;;;;;;9.95;7.63;;;8.70;99.90;;;;;;5068994;28;20089;-60
2021/11/14 08:16:39;;;;;;;10.45;7.15;;;8.70;99.90;;;;;;5068598;28;20042;-61
2021/11/14 08:19:05;;;;;;;9.63;6.88;;;8.70;99.90;;;;;;5069322;28;20028;-61
2021/11/14 08:21:30;;;;;;;7.68;6.30;;;8.70;99.90;;;;;;5069535;28;20021;-62
2021/11/14 08:23:56;;;;;;;9.45;6.93;;;8.70;99.90;;;;;;5069249;28;20024;-61
2021/11/14 08:26:22;;;;;;;7.70;5.95;;;8.70;99.90;;;;;;5069354;28;20028;-60
2021/11/14 08:28:47;;;;;;;12.02;6.55;;;8.80;99.90;;;;;;5070073;28;20398;-61
2021/11/14 08:31:18;;;;;;;6.88;5.93;;;8.90;99.90;;;;;;5069459;28;20029;-61
2021/11/14 08:33:44;;;;;;;11.02;7.53;;;8.90;99.90;;;;;;5069691;28;20031;-61
2021/11/14 08:36:09;;;;;;;9.00;6.07;;;8.90;99.90;;;;;;5073197;28;20021;-62
2021/11/14 08:38:35;;;;;;;10.60;6.60;;;9.00;99.90;;;;;;5072746;28;20060;-62
2021/11/14 08:41:01;;;;;;;8.55;5.28;;;8.90;99.90;;;;;;5073267;28;20117;-62
2021/11/14 08:43:26;;;;;;;8.60;5.00;;;9.00;99.90;;;;;;5072288;28;20020;-62
2021/11/14 08:45:52;;;;;;;6.68;5.43;;;9.00;99.90;;;;;;5071686;28;20070;-61
2021/11/14 08:48:18;;;;;;;11.00;5.60;;;9.10;99.90;;;;;;5076097;28;20021;-62
2021/11/14 08:50:46;;;;;;;8.45;5.25;;;9.20;99.90;;;;;;5073099;28;20043;-62
2021/11/14 08:53:12;;;;;;;8.02;5.07;;;9.20;99.90;;;;;;5075204;28;20385;-62
2021/11/14 08:55:37;;;;;;;14.27;6.05;;;9.20;99.90;;;;;;5073207;28;20021;-61
2021/11/14 08:58:03;;;;;;;4.78;4.03;;;9.30;99.90;;;;;;5072050;28;20028;-61
2021/11/14 09:00:32;;;;;;;7.65;3.90;;;9.40;99.90;;;;;;5073389;28;20032;-61
2021/11/14 09:02:59;;;;;;;6.88;3.50;;;9.30;99.90;;;;;;5070594;28;20035;-61
2021/11/14 09:05:26;;;;;;;4.22;2.88;;;9.40;99.90;;;;;;5072053;28;20500;-62
2021/11/14 09:07:53;;;;;;;4.10;3.53;;;9.40;99.90;;;;;;5072542;28;20102;-61
2021/11/14 09:10:20;;;;;;;11.23;3.55;;;9.50;99.90;;;;;;5071777;28;20115;-61
2021/11/14 09:12:47;;;;;;;3.65;3.13;;;9.50;99.90;;;;;;5072448;28;20429;-63
2021/11/14 09:15:13;;;;;;;3.42;3.05;;;9.50;99.90;;;;;;5074856;28;20089;-61
2021/11/14 09:17:39;;;;;;;9.05;3.38;;;9.50;99.90;;;;;;5075264;28;20020;-57
2021/11/14 09:20:06;;;;;;;4.43;3.00;;;9.60;99.90;;;;;;5074418;28;20041;-61
2021/11/14 09:22:37;;;;;;;3.45;2.88;;;9.60;99.90;;;;;;5065846;28;20115;-62
2021/11/14 09:25:04;;;;;;;4.82;3.20;;;9.60;99.90;;;;;;5071706;28;20033;-63
2021/11/14 09:27:29;;;;;;;4.15;3.30;;;9.60;99.90;;;;;;5075441;28;20032;-62
2021/11/14 09:29:56;;;;;;;9.48;2.90;;;9.70;99.90;;;;;;5072899;28;20028;-62
2021/11/14 09:32:21;;;;;;;7.00;2.30;;;9.70;99.90;;;;;;5073040;28;20028;-61
2021/11/14 09:34:47;;;;;;;4.30;2.70;;;9.70;99.90;;;;;;5071663;28;20016;-61
2021/11/14 09:37:12;;;;;;;2.60;2.20;;;9.70;99.90;;;;;;5087855;22;20008;-61
2021/11/14 09:39:38;;;;;;;3.35;2.00;;;9.70;99.90;;;;;;5075964;28;20554;-64
2021/11/14 09:42:04;;;;;;;2.42;1.90;;;9.80;99.90;;;;;;5080063;28;20083;-63
2021/11/14 09:44:30;;;;;;;1.83;1.48;;;9.80;99.90;;;;;;5070098;28;20458;-63
2021/11/14 09:47:00;;;;;;;3.53;1.85;;;9.80;99.90;;;;;;5053091;28;20054;-63
2021/11/14 09:49:28;;;;;;;3.30;1.45;;;9.80;99.90;;;;;;5070369;28;20021;-61
2021/11/14 09:51:56;;;;;;;3.53;1.52;;;9.80;99.90;;;;;;5068637;28;20506;-62
2021/11/14 09:54:23;;;;;;;4.88;1.85;;;9.80;99.90;;;;;;5069233;28;20037;-65
2021/11/14 09:56:50;;;;;;;1.50;1.40;;;9.90;99.90;;;;;;5071876;28;20104;-65
2021/11/14 09:59:16;;;;;;;1.95;1.80;;;9.90;99.90;;;;;;5071969;28;20029;-64
2021/11/14 10:01:44;;;;;;;4.82;1.67;;;9.80;99.90;;;;;;5076089;28;20025;-63
2021/11/14 10:04:11;;;;;;;2.95;1.15;;;9.90;99.90;;;;;;5072522;28;20513;-62
2021/11/14 10:06:37;;;;;;;1.73;1.40;;;9.80;99.90;;;;;;5070694;28;20024;-63
2021/11/14 10:09:05;;;;;;;3.47;1.38;;;9.80;99.90;;;;;;5064506;28;20028;-63
2021/11/14 10:11:36;;;;;;;4.28;1.58;;;9.80;99.90;;;;;;5066841;28;20027;-63
2021/11/14 10:14:03;;;;;;;6.20;1.65;;;9.90;99.90;;;;;;5066068;28;20028;-61
2021/11/14 10:16:29;;;;;;;2.72;1.50;;;9.90;99.90;;;;;;5064374;28;20540;-63
2021/11/14 10:19:10;;;;;;;2.97;1.52;;;9.80;99.90;;;;;;5051529;28;20021;-63
2021/11/14 10:21:36;;;;;;;3.50;1.90;;;9.90;99.90;;;;;;5070034;28;20025;-63
2021/11/14 10:24:04;;;;;;;5.75;1.20;;;9.90;99.90;;;;;;5068262;28;20037;-63
2021/11/14 10:26:31;;;;;;;1.75;1.30;;;9.90;99.90;;;;;;5067258;28;20450;-62
2021/11/14 10:29:06;;;;;;;1.25;1.08;;;9.90;99.90;;;;;;5071072;28;20163;-64
2021/11/14 10:31:32;;;;;;;1.17;1.05;;;10.00;99.90;;;;;;5076197;28;20103;-63
2021/11/14 10:33:59;;;;;;;1.10;1.00;;;9.90;99.90;;;;;;5071178;28;20017;-64
2021/11/14 10:36:25;;;;;;;2.35;1.35;;;9.90;99.90;;;;;;5069304;28;20035;-63
2021/11/14 10:39:03;;;;;;;4.50;1.25;;;9.90;99.90;;;;;;5069216;28;20024;-63
2021/11/14 10:41:29;;;;;;;4.32;1.20;;;10.00;99.90;;;;;;5070888;28;20617;-62
2021/11/14 10:44:12;;;;;;;1.30;1.20;;;9.90;99.90;;;;;;5073040;28;20032;-61
2021/11/14 10:46:38;;;;;;;5.13;1.10;;;10.00;99.90;;;;;;5069683;28;20024;-62
2021/11/14 10:49:09;;;;;;;5.70;1.25;;;10.00;99.90;;;;;;5069693;28;20085;-63
2021/11/14 10:51:37;;;;;;;1.83;1.10;;;10.00;99.90;;;;;;5071332;28;20121;-63
2021/11/14 10:54:03;;;;;;;1.10;0.98;;;10.00;99.90;;;;;;5068220;28;20397;-62
2021/11/14 10:56:28;;;;;;;2.15;1.40;;;10.10;99.90;;;;;;5069080;28;20025;-63
2021/11/14 10:58:54;;;;;;;1.83;1.00;;;10.10;99.90;;;;;;5069593;28;20029;-63
2021/11/14 11:01:21;;;;;;;1.08;0.95;;;10.10;99.90;;;;;;5050376;28;20499;-62
2021/11/14 11:03:50;;;;;;;4.68;1.08;;;10.10;99.90;;;;;;5062530;28;20020;-62
2021/11/14 11:06:26;;;;;;;1.77;1.10;;;10.20;99.90;;;;;;5064161;28;20040;-62
2021/11/14 11:08:56;;;;;;;5.95;1.13;;;10.30;99.90;;;;;;5063212;28;20564;-64
2021/11/14 11:11:22;;;;;;;2.58;0.93;;;10.30;99.90;;;;;;5068247;28;20041;-61
2021/11/14 11:13:49;;;;;;;1.17;0.93;;;10.30;99.90;;;;;;5061449;28;20091;-63
2021/11/14 11:16:20;;;;;;;1.45;1.02;;;10.30;99.90;;;;;;5060173;28;20025;-63
2021/11/14 11:18:59;;;;;;;1.38;1.10;;;10.40;99.90;;;;;;5061281;28;20029;-60
2021/11/14 11:21:29;;;;;;;2.47;1.00;;;10.50;99.90;;;;;;5058101;28;20033;-63
2021/11/14 11:24:11;;;;;;;1.70;0.90;;;10.50;99.90;;;;;;5060819;28;20052;-63
2021/11/14 11:26:39;;;;;;;4.38;0.75;;;10.60;99.90;;;;;;5060870;28;20490;-62
2021/11/14 11:29:18;;;;;;;5.88;1.10;;;10.50;99.90;;;;;;5059054;28;20025;-62
2021/11/14 11:31:48;;;;;;;1.35;1.23;;;10.60;99.90;;;;;;5063111;28;20024;-63
2021/11/14 11:34:16;;;;;;;4.25;1.65;;;10.60;99.90;;;;;;5060321;28;20402;-63
2021/11/14 11:36:42;;;;;;;1.45;1.25;;;10.70;99.90;;;;;;5061589;28;20395;-64
2021/11/14 11:39:08;;;;;;;2.65;1.40;;;10.80;99.90;;;;;;5056894;28;20029;-62
2021/11/14 11:41:36;;;;;;;2.38;1.52;;;10.80;99.90;;;;;;5060079;28;20107;-63
2021/11/14 11:44:03;;;;;;;4.18;1.20;;;10.80;99.90;;;;;;5058521;28;20518;-64
2021/11/14 11:46:32;;;;;;;1.80;1.33;;;10.80;99.90;;;;;;5058022;28;20109;-62
2021/11/14 11:49:01;;;;;;;7.85;1.20;;;10.80;99.90;;;;;;5056859;28;20032;-64
2021/11/14 11:51:41;;;;;;;4.05;1.55;;;10.90;99.90;;;;;;5057717;28;20033;-63
2021/11/14 11:54:13;;;;;;;1.95;1.60;;;11.00;99.90;;;;;;5059550;28;20025;-63
2021/11/14 11:56:44;;;;;;;1.42;1.33;;;11.00;99.90;;;;;;5058315;28;20021;-64
2021/11/14 11:59:28;;;;;;;3.50;1.40;;;11.10;99.90;;;;;;5062712;28;20098;-64
2021/11/14 12:02:00;;;;;;;2.95;1.50;;;11.30;99.90;;;;;;5053552;28;20040;-64
2021/11/14 12:04:41;;;;;;;2.63;2.05;;;11.40;99.90;;;;;;5058121;28;20030;-63
2021/11/14 12:07:21;;;;;;;1.30;1.00;;;11.50;99.90;;;;;;5055765;28;20540;-64
2021/11/14 12:09:51;;;;;;;1.48;1.23;;;11.60;99.90;;;;;;5059718;28;20106;-62
2021/11/14 12:12:25;;;;;;;1.42;1.33;;;11.60;99.90;;;;;;5056456;28;20033;-63
2021/11/14 12:15:15;;;;;;;2.13;1.47;;;11.50;99.90;;;;;;5059564;28;20020;-64
2021/11/14 12:17:50;;;;;;;6.93;1.70;;;11.40;99.90;;;;;;5059671;28;20277;-62
2021/11/14 12:20:20;;;;;;;1.30;1.20;;;11.30;99.90;;;;;;5061277;28;20032;-64
2021/11/14 12:22:49;;;;;;;2.30;1.85;;;11.30;99.90;;;;;;5062884;28;20051;-63
2021/11/14 12:25:36;;;;;;;1.60;1.13;;;11.30;99.90;;;;;;5061632;28;20037;-64
2021/11/14 12:28:09;;;;;;;1.40;1.30;;;11.20;99.90;;;;;;5042300;28;20460;-63
2021/11/14 12:30:40;;;;;;;4.18;1.10;;;11.20;99.90;;;;;;5056312;28;20029;-63
2021/11/14 12:33:08;;;;;;;1.67;1.50;;;11.20;99.90;;;;;;5059532;28;20025;-63
2021/11/14 12:35:46;;;;;;;1.52;1.42;;;11.20;99.90;;;;;;5055324;28;20049;-64
2021/11/14 12:38:19;;;;;;;1.30;1.20;;;11.20;99.90;;;;;;5060387;28;20181;-64
2021/11/14 12:40:52;;;;;;;3.13;1.40;;;11.10;99.90;;;;;;5061015;28;20528;-63
2021/11/14 12:43:20;;;;;;;1.50;1.40;;;11.10;99.90;;;;;;5058329;28;20140;-64
2021/11/14 12:45:47;;;;;;;1.45;1.35;;;11.00;99.90;;;;;;5051374;28;20041;-63
2021/11/14 12:48:13;;;;;;;2.92;1.50;;;11.00;99.90;;;;;;5053562;28;20059;-64
2021/11/14 12:50:39;;;;;;;1.83;1.40;;;10.90;99.90;;;;;;5057660;28;20578;-67
2021/11/14 12:53:07;;;;;;;1.55;1.45;;;10.90;99.90;;;;;;5059668;28;20059;-64